createdAt,value
2018-02-27T00:00:33.113Z,87.00
2018-02-27T00:03:00.675Z,87.40
2018-02-27T00:05:28.211Z,88.30
2018-02-27T00:07:56.829Z,89.20
2018-02-27T00:10:24.375Z,89.10
2018-02-27T00:12:51.916Z,90.10
2018-02-27T00:15:19.527Z,90.40
2018-02-27T00:17:47.067Z,90.40
2018-02-27T00:20:16.473Z,90.00
2018-02-27T00:22:44.044Z,89.00
2018-02-27T00:25:11.583Z,88.70
2018-02-27T00:27:39.128Z,87.90
2018-02-27T00:30:07.352Z,88.80
2018-02-27T00:32:34.884Z,88.00
2018-02-27T00:35:02.460Z,87.40
2018-02-27T00:37:30.023Z,86.50
2018-02-27T00:39:57.577Z,85.70
2018-02-27T00:42:25.119Z,86.10
2018-02-27T00:44:52.799Z,86.10
2018-02-27T00:47:20.336Z,85.60
2018-02-27T00:49:47.884Z,85.60
2018-02-27T00:52:16.671Z,85.60
2018-02-27T00:54:44.231Z,85.50
2018-02-27T00:57:12.407Z,84.80
2018-02-27T00:59:39.986Z,84.70
2018-02-27T01:02:07.532Z,84.00
2018-02-27T01:04:35.082Z,83.90
2018-02-27T01:07:02.650Z,83.50
2018-02-27T01:09:30.197Z,83.70
2018-02-27T01:11:57.740Z,83.20
2018-02-27T01:14:25.887Z,83.10
2018-02-27T01:16:53.436Z,83.10
2018-02-27T01:19:20.976Z,82.90
2018-02-27T01:21:48.552Z,83.10
2018-02-27T01:24:17.223Z,83.70
2018-02-27T01:26:44.763Z,83.70
2018-02-27T01:29:12.340Z,84.10
2018-02-27T01:31:39.911Z,84.30
2018-02-27T01:34:07.473Z,83.70
2018-02-27T01:36:35.461Z,82.60
2018-02-27T01:39:03.002Z,82.80
2018-02-27T01:41:30.539Z,82.20
2018-02-27T01:43:58.109Z,82.40
2018-02-27T01:46:26.424Z,81.70
2018-02-27T01:48:53.981Z,81.70
2018-02-27T01:51:21.563Z,81.40
2018-02-27T01:53:49.111Z,81.40
2018-02-27T01:56:16.659Z,81.40
2018-02-27T01:58:45.163Z,81.40
2018-02-27T02:01:14.410Z,80.50
2018-02-27T02:03:41.950Z,80.50
2018-02-27T02:06:09.524Z,80.10
2018-02-27T02:08:37.063Z,80.50
2018-02-27T02:11:04.627Z,80.90
2018-02-27T02:13:32.227Z,81.80
2018-02-27T02:15:59.772Z,81.80
2018-02-27T02:18:27.331Z,81.80
2018-02-27T02:20:55.471Z,81.10
2018-02-27T02:23:23.040Z,81.30
2018-02-27T02:25:50.604Z,81.40
2018-02-27T02:28:18.170Z,81.50
2018-02-27T02:30:45.716Z,81.20
2018-02-27T02:33:14.664Z,81.50
2018-02-27T02:35:42.237Z,81.70
2018-02-27T02:38:09.791Z,82.00
2018-02-27T02:40:37.360Z,81.90
2018-02-27T02:43:05.407Z,82.60
2018-02-27T02:45:32.963Z,82.90
2018-02-27T02:48:00.511Z,82.60
2018-02-27T02:50:28.108Z,82.40
2018-02-27T02:52:55.659Z,82.80
2018-02-27T02:55:23.207Z,82.00
2018-02-27T02:57:50.783Z,82.20
2018-02-27T03:00:18.799Z,82.40
2018-02-27T03:02:46.346Z,82.40
2018-02-27T03:05:15.908Z,82.30
2018-02-27T03:07:43.452Z,82.50
2018-02-27T03:10:10.991Z,82.50
2018-02-27T03:12:38.576Z,82.10
2018-02-27T03:15:06.127Z,81.80
2018-02-27T03:17:33.671Z,81.50
2018-02-27T03:20:01.258Z,81.50
2018-02-27T03:22:28.819Z,81.20
2018-02-27T03:24:56.373Z,81.00
2018-02-27T03:27:24.560Z,81.20
2018-02-27T03:29:52.117Z,81.60
2018-02-27T03:32:19.661Z,81.60
2018-02-27T03:34:47.236Z,81.70
2018-02-27T03:37:16.440Z,81.80
2018-02-27T03:39:43.983Z,81.50
2018-02-27T03:42:11.559Z,81.50
2018-02-27T03:44:39.103Z,81.90
2018-02-27T03:47:06.648Z,81.50
2018-02-27T03:49:35.683Z,82.30
2018-02-27T03:52:03.231Z,81.80
2018-02-27T03:54:30.803Z,81.80
2018-02-27T03:56:58.376Z,81.80
2018-02-27T03:59:25.929Z,81.70
2018-02-27T04:01:54.005Z,81.80
2018-02-27T04:04:21.586Z,81.80
2018-02-27T04:06:49.136Z,81.60
2018-02-27T04:09:17.564Z,82.00
2018-02-27T04:11:45.200Z,81.80
2018-02-27T04:14:12.756Z,82.30
2018-02-27T04:16:41.072Z,82.10
2018-02-27T04:19:08.647Z,81.90
2018-02-27T04:21:36.201Z,82.30
2018-02-27T04:24:03.746Z,82.40
2018-02-27T04:26:31.324Z,82.50
2018-02-27T04:28:58.882Z,82.20
2018-02-27T04:31:26.440Z,81.80
2018-02-27T04:33:54.518Z,82.10
2018-02-27T04:36:22.100Z,82.10
2018-02-27T04:38:49.644Z,82.10
2018-02-27T04:41:17.226Z,82.00
2018-02-27T04:43:45.547Z,82.30
2018-02-27T04:46:15.384Z,82.20
2018-02-27T04:48:42.967Z,82.20
2018-02-27T04:51:10.523Z,82.50
2018-02-27T04:53:38.074Z,82.50
2018-02-27T04:56:05.959Z,82.80
2018-02-27T04:58:33.522Z,82.70
2018-02-27T05:01:01.081Z,82.90
2018-02-27T05:03:28.919Z,82.90
2018-02-27T05:05:56.473Z,82.60
2018-02-27T05:08:24.029Z,82.80
2018-02-27T05:10:51.624Z,82.70
2018-02-27T05:13:19.312Z,82.30
2018-02-27T05:15:46.872Z,82.30
2018-02-27T05:18:26.879Z,82.30
2018-02-27T05:24:32.697Z,83.40
2018-02-27T05:27:01.011Z,83.60
2018-02-27T05:29:28.565Z,83.60
2018-02-27T05:31:56.993Z,84.10
2018-02-27T05:34:24.552Z,84.10
2018-02-27T05:36:52.096Z,84.00
2018-02-27T05:39:20.270Z,84.10
2018-02-27T05:41:47.814Z,84.10
2018-02-27T05:44:16.452Z,84.00
2018-02-27T05:46:44.794Z,83.70
2018-02-27T05:49:12.349Z,83.70
2018-02-27T05:51:39.891Z,83.40
2018-02-27T05:54:07.477Z,83.40
2018-02-27T05:56:35.023Z,83.20
2018-02-27T05:59:02.574Z,83.30
2018-02-27T06:01:30.477Z,83.10
2018-02-27T06:03:58.164Z,83.10
2018-02-27T06:06:25.716Z,82.70
2018-02-27T06:08:53.283Z,83.00
2018-02-27T06:11:20.835Z,83.40
2018-02-27T06:13:48.395Z,82.80
2018-02-27T06:16:16.524Z,82.00
2018-02-27T06:18:44.077Z,81.50
2018-02-27T06:21:11.653Z,81.60
2018-02-27T06:23:39.279Z,81.60
2018-02-27T06:26:06.832Z,81.40
2018-02-27T06:28:34.387Z,80.90
2018-02-27T06:31:02.044Z,81.10
2018-02-27T06:33:30.373Z,81.10
2018-02-27T06:35:57.927Z,81.10
2018-02-27T06:38:25.502Z,81.00
2018-02-27T06:40:53.077Z,80.70
2018-02-27T06:43:20.626Z,80.10
2018-02-27T06:45:48.521Z,79.40
2018-02-27T06:48:16.501Z,79.40
2018-02-27T06:50:44.827Z,78.50
2018-02-27T06:53:12.419Z,78.50
2018-02-27T06:55:39.963Z,77.80
2018-02-27T06:58:07.519Z,77.60
2018-02-27T07:00:35.123Z,77.40
2018-02-27T07:03:03.455Z,76.80
2018-02-27T07:05:31.389Z,76.80
2018-02-27T07:07:59.521Z,76.50
2018-02-27T07:10:27.163Z,75.70
2018-02-27T07:12:54.801Z,75.00
2018-02-27T07:15:22.397Z,74.10
2018-02-27T07:17:50.560Z,75.00
2018-02-27T07:20:18.108Z,75.00
2018-02-27T07:22:46.419Z,73.40
2018-02-27T07:25:18.423Z,73.00
2018-02-27T07:27:46.751Z,70.70
2018-02-27T07:30:16.388Z,70.70
2018-02-27T07:32:44.694Z,70.70
2018-02-27T07:35:12.259Z,70.70
2018-02-27T07:37:39.879Z,69.80
2018-02-27T07:40:08.775Z,69.20
2018-02-27T07:42:37.087Z,69.60
2018-02-27T07:45:05.420Z,68.90
2018-02-27T07:47:32.972Z,68.90
2018-02-27T07:50:00.973Z,68.50
2018-02-27T07:52:28.782Z,68.20
2018-02-27T07:54:56.388Z,68.70
2018-02-27T07:57:24.744Z,67.00
2018-02-27T07:59:52.354Z,67.00
2018-02-27T08:02:20.737Z,67.50
2018-02-27T08:04:49.091Z,66.20
2018-02-27T08:07:17.207Z,65.70
2018-02-27T08:09:44.756Z,64.10
2018-02-27T08:12:12.367Z,61.50
2018-02-27T08:14:39.985Z,61.20
2018-02-27T08:17:07.523Z,60.60
2018-02-27T08:19:35.076Z,59.30
2018-02-27T08:22:02.648Z,58.80
2018-02-27T08:24:30.245Z,58.40
2018-02-27T08:26:57.792Z,58.30
2018-02-27T08:29:25.382Z,57.10
2018-02-27T08:31:53.003Z,55.70
2018-02-27T08:34:20.596Z,54.60
2018-02-27T08:36:48.581Z,55.10
2018-02-27T08:39:17.232Z,51.80
2018-02-27T08:41:44.782Z,51.80
2018-02-27T08:44:12.406Z,50.50
2018-02-27T08:46:40.720Z,48.10
2018-02-27T08:49:08.268Z,48.10
2018-02-27T08:51:35.848Z,47.60
2018-02-27T08:54:03.388Z,45.10
2018-02-27T08:56:30.969Z,43.80
2018-02-27T08:58:59.000Z,41.80
2018-02-27T09:01:26.557Z,41.10
2018-02-27T09:03:54.872Z,39.00
2018-02-27T09:06:22.526Z,39.00
2018-02-27T09:08:50.996Z,38.80
2018-02-27T09:11:18.539Z,38.70
2018-02-27T09:13:46.895Z,38.70
2018-02-27T09:16:15.501Z,38.60
2018-02-27T09:18:43.112Z,37.20
2018-02-27T09:21:11.469Z,37.30
2018-02-27T09:23:39.231Z,38.00
2018-02-27T09:26:06.784Z,37.70
2018-02-27T09:28:34.368Z,38.00
2018-02-27T09:31:01.912Z,38.40
2018-02-27T09:33:29.499Z,38.00
2018-02-27T09:35:57.111Z,38.30
2018-02-27T09:38:25.854Z,38.20
2018-02-27T09:40:53.670Z,37.90
2018-02-27T09:43:22.047Z,36.50
2018-02-27T09:45:49.615Z,36.10
2018-02-27T09:48:17.919Z,36.20
2018-02-27T09:50:45.545Z,35.60
2018-02-27T09:53:24.347Z,35.20
2018-02-27T09:58:26.299Z,36.00
2018-02-27T10:00:53.846Z,37.10
2018-02-27T10:03:21.410Z,37.00
2018-02-27T10:05:48.992Z,39.00
2018-02-27T10:08:16.607Z,39.20
2018-02-27T10:10:44.808Z,40.20
2018-02-27T10:13:12.394Z,41.10
2018-02-27T10:15:39.928Z,40.00
2018-02-27T10:18:07.496Z,40.90
2018-02-27T10:20:35.552Z,42.90
2018-02-27T10:23:03.120Z,42.40
2018-02-27T10:25:30.681Z,43.50
2018-02-27T10:27:58.273Z,46.00
2018-02-27T10:30:26.579Z,47.30
2018-02-27T10:32:54.124Z,47.30
2018-02-27T10:35:22.470Z,46.70
2018-02-27T10:37:50.024Z,46.60
2018-02-27T10:40:17.576Z,48.90
2018-02-27T10:42:45.242Z,47.90
2018-02-27T10:45:14.634Z,49.00
2018-02-27T10:47:42.181Z,51.40
2018-02-27T10:50:09.764Z,52.40
2018-02-27T10:52:37.312Z,52.10
2018-02-27T10:55:04.860Z,53.80
2018-02-27T10:57:32.439Z,53.50
2018-02-27T10:59:59.983Z,54.40
2018-02-27T11:02:27.528Z,55.20
2018-02-27T11:04:55.630Z,55.00
2018-02-27T11:07:23.208Z,53.50
2018-02-27T11:09:50.767Z,52.90
2018-02-27T11:12:18.775Z,51.60
2018-02-27T11:14:46.366Z,52.30
2018-02-27T11:17:15.554Z,53.60
2018-02-27T11:19:43.163Z,53.40
2018-02-27T11:22:10.845Z,53.80
2018-02-27T11:24:39.162Z,53.60
2018-02-27T11:27:07.649Z,53.60
2018-02-27T11:29:35.197Z,51.60
2018-02-27T11:32:03.211Z,52.50
2018-02-27T11:34:30.805Z,52.60
2018-02-27T11:36:58.372Z,52.40
2018-02-27T11:39:25.920Z,50.70
2018-02-27T11:41:54.260Z,50.50
2018-02-27T11:44:21.808Z,50.40
2018-02-27T11:46:49.363Z,49.90
2018-02-27T11:49:17.585Z,49.80
2018-02-27T11:51:45.184Z,50.40
2018-02-27T11:54:13.670Z,53.30
2018-02-27T11:56:41.275Z,53.20
2018-02-27T11:59:08.855Z,53.00
2018-02-27T12:01:36.471Z,52.30
2018-02-27T12:04:04.047Z,52.00
2018-02-27T12:06:31.660Z,51.80
2018-02-27T12:08:59.244Z,52.80
2018-02-27T12:11:27.060Z,52.60
2018-02-27T12:13:54.836Z,52.50
2018-02-27T12:16:22.432Z,50.60
2018-02-27T12:18:50.007Z,48.80
2018-02-27T12:21:17.560Z,49.50
2018-02-27T12:23:45.348Z,48.90
2018-02-27T12:26:14.612Z,47.80
2018-02-27T12:28:43.089Z,46.40
2018-02-27T12:31:10.648Z,46.40
2018-02-27T12:33:40.833Z,46.20
2018-02-27T12:36:08.411Z,48.50
2018-02-27T12:38:35.961Z,46.80
2018-02-27T12:41:04.298Z,48.90
2018-02-27T12:43:31.884Z,48.80
2018-02-27T12:45:59.736Z,48.80
2018-02-27T12:48:27.368Z,49.10
2018-02-27T12:50:54.924Z,49.00
2018-02-27T12:53:22.476Z,49.10
2018-02-27T12:55:51.412Z,49.80
2018-02-27T12:58:18.988Z,49.80
2018-02-27T13:00:46.527Z,50.20
2018-02-27T13:03:16.325Z,51.20
2018-02-27T13:05:43.864Z,51.20
2018-02-27T13:08:11.403Z,48.90
2018-02-27T13:10:38.992Z,48.50
2018-02-27T13:13:06.544Z,49.00
2018-02-27T13:15:34.591Z,48.50
2018-02-27T13:18:02.479Z,48.50
2018-02-27T13:20:30.073Z,49.10
2018-02-27T13:22:57.621Z,49.20
2018-02-27T13:25:25.273Z,49.30
2018-02-27T13:27:53.136Z,49.40
2018-02-27T13:30:20.896Z,51.00
2018-02-27T13:32:48.627Z,51.10
2018-02-27T13:35:16.657Z,51.40
2018-02-27T13:37:44.207Z,50.40
2018-02-27T13:40:12.533Z,51.00
2018-02-27T13:42:40.840Z,51.00
2018-02-27T13:45:09.211Z,52.20
2018-02-27T13:47:36.961Z,52.10
2018-02-27T13:50:04.516Z,51.40
2018-02-27T13:52:32.845Z,50.80
2018-02-27T13:55:00.417Z,50.70
2018-02-27T13:57:27.971Z,50.60
2018-02-27T13:59:55.522Z,51.20
2018-02-27T14:02:23.709Z,49.80
2018-02-27T14:04:51.264Z,48.80
2018-02-27T14:07:18.824Z,49.80
2018-02-27T14:09:46.411Z,50.30
2018-02-27T14:12:16.758Z,48.10
2018-02-27T14:14:44.327Z,48.10
2018-02-27T14:17:12.401Z,47.70
2018-02-27T14:19:40.021Z,48.60
2018-02-27T14:22:07.576Z,46.90
2018-02-27T14:24:35.528Z,48.00
2018-02-27T14:27:03.075Z,47.60
2018-02-27T14:29:30.628Z,46.90
2018-02-27T14:31:59.930Z,47.20
2018-02-27T14:34:27.480Z,47.00
2018-02-27T14:36:55.026Z,46.30
2018-02-27T14:39:22.629Z,47.20
2018-02-27T14:41:50.180Z,47.80
2018-02-27T14:44:17.904Z,48.30
2018-02-27T14:46:47.108Z,49.60
2018-02-27T14:49:16.356Z,48.80
2018-02-27T14:51:43.908Z,48.80
2018-02-27T14:54:12.145Z,49.50
2018-02-27T14:56:40.517Z,47.60
2018-02-27T14:59:08.851Z,47.50
2018-02-27T15:01:36.443Z,47.50
2018-02-27T15:04:06.477Z,47.80
2018-02-27T15:06:34.059Z,47.80
2018-02-27T15:09:02.188Z,48.00
2018-02-27T15:11:29.772Z,49.30
2018-02-27T15:13:57.398Z,50.60
2018-02-27T15:16:24.988Z,49.60
2018-02-27T15:18:53.021Z,49.00
2018-02-27T15:21:20.642Z,48.40
2018-02-27T15:23:48.364Z,48.70
2018-02-27T15:26:16.560Z,48.80
2018-02-27T15:28:44.158Z,47.50
2018-02-27T15:31:12.384Z,47.20
2018-02-27T15:33:39.931Z,45.70
2018-02-27T15:36:08.616Z,46.70
2018-02-27T15:38:36.215Z,46.20
2018-02-27T15:41:04.533Z,46.00
2018-02-27T15:43:32.140Z,46.00
2018-02-27T15:45:59.724Z,47.80
2018-02-27T15:48:28.032Z,47.80
2018-02-27T15:50:55.589Z,47.90
2018-02-27T15:53:23.593Z,48.30
2018-02-27T15:55:51.125Z,48.50
2018-02-27T15:58:18.684Z,48.50
2018-02-27T16:00:46.264Z,48.90
2018-02-27T16:03:25.339Z,49.60
2018-02-27T16:08:27.769Z,50.30
2018-02-27T16:10:55.319Z,50.70
2018-02-27T16:13:22.874Z,50.80
2018-02-27T16:15:50.489Z,50.00
2018-02-27T16:18:18.035Z,50.40
2018-02-27T16:20:46.345Z,50.30
2018-02-27T16:23:16.344Z,50.40
2018-02-27T16:25:43.960Z,50.40
2018-02-27T16:28:11.502Z,51.60
2018-02-27T16:30:39.928Z,52.00
2018-02-27T16:33:07.487Z,52.50
2018-02-27T16:35:35.027Z,53.40
2018-02-27T16:38:02.595Z,54.30
2018-02-27T16:40:30.127Z,54.70
2018-02-27T16:42:58.581Z,55.20
2018-02-27T16:45:27.432Z,55.60
2018-02-27T16:47:54.972Z,55.50
2018-02-27T16:50:22.519Z,56.40
2018-02-27T16:52:50.881Z,57.90
2018-02-27T16:55:18.434Z,58.50
2018-02-27T16:57:46.745Z,60.00
2018-02-27T17:00:16.483Z,60.40
2018-02-27T17:02:44.031Z,60.30
2018-02-27T17:05:11.572Z,61.00
2018-02-27T17:07:39.141Z,61.80
2018-02-27T17:10:06.675Z,62.40
2018-02-27T17:12:34.251Z,61.90
2018-02-27T17:15:01.896Z,61.90
2018-02-27T17:17:29.481Z,62.20
2018-02-27T17:19:57.012Z,63.00
2018-02-27T17:22:25.020Z,63.60
2018-02-27T17:24:52.588Z,63.80
2018-02-27T17:27:20.160Z,63.80
2018-02-27T17:29:48.120Z,63.80
2018-02-27T17:32:16.479Z,63.80
2018-02-27T17:34:44.020Z,63.80
2018-02-27T17:37:12.172Z,63.80
2018-02-27T17:39:39.722Z,63.50
2018-02-27T17:42:07.272Z,63.90
2018-02-27T17:44:35.050Z,64.10
2018-02-27T17:47:02.608Z,64.40
2018-02-27T17:49:30.151Z,64.10
2018-02-27T17:51:58.216Z,63.70
2018-02-27T17:54:25.766Z,63.90
2018-02-27T17:56:54.328Z,63.70
2018-02-27T17:59:22.189Z,63.60
2018-02-27T18:01:49.752Z,63.10
2018-02-27T18:04:17.329Z,64.10
2018-02-27T18:06:44.927Z,64.00
2018-02-27T18:09:12.471Z,64.20
2018-02-27T18:11:40.021Z,64.00
2018-02-27T18:14:07.611Z,64.00
2018-02-27T18:16:35.188Z,63.80
2018-02-27T18:19:03.544Z,64.20
2018-02-27T18:21:33.467Z,64.20
2018-02-27T18:24:02.405Z,64.30
2018-02-27T18:26:32.425Z,64.40
2018-02-27T18:29:00.260Z,64.40
2018-02-27T18:31:28.584Z,65.00
2018-02-27T18:33:56.212Z,65.00
2018-02-27T18:36:24.948Z,65.50
2018-02-27T18:38:52.511Z,65.40
2018-02-27T18:41:20.055Z,65.50
2018-02-27T18:43:48.289Z,66.10
2018-02-27T18:46:16.789Z,65.90
2018-02-27T18:48:44.388Z,65.70
2018-02-27T18:51:11.961Z,65.80
2018-02-27T18:53:39.512Z,66.10
2018-02-27T18:56:07.058Z,66.20
2018-02-27T18:58:34.628Z,66.50
2018-02-27T19:01:02.174Z,66.70
2018-02-27T19:03:29.725Z,66.80
2018-02-27T19:05:57.827Z,67.60
2018-02-27T19:08:26.267Z,67.80
2018-02-27T19:13:29.733Z,67.90
2018-02-27T19:15:57.303Z,68.30
2018-02-27T19:18:24.888Z,68.40
2018-02-27T19:20:52.477Z,68.50
2018-02-27T19:23:20.024Z,68.30
2018-02-27T19:25:48.557Z,68.20
2018-02-27T19:28:16.427Z,68.40
2018-02-27T19:30:44.075Z,69.50
2018-02-27T19:33:11.880Z,68.60
2018-02-27T19:35:40.199Z,69.20
2018-02-27T19:38:08.512Z,69.10
2018-02-27T19:40:36.105Z,69.10
2018-02-27T19:43:04.411Z,70.10
2018-02-27T19:45:32.089Z,69.90
2018-02-27T19:47:59.736Z,70.10
2018-02-27T19:50:27.284Z,70.40
2018-02-27T19:52:55.045Z,70.80
2018-02-27T19:55:22.660Z,71.40
2018-02-27T19:57:50.245Z,72.10
2018-02-27T20:00:18.568Z,71.10
2018-02-27T20:02:46.151Z,71.10
2018-02-27T20:05:15.614Z,71.60
2018-02-27T20:07:43.898Z,70.90
2018-02-27T20:10:12.063Z,70.90
2018-02-27T20:12:39.604Z,70.20
2018-02-27T20:15:07.927Z,70.10
2018-02-27T20:17:35.512Z,70.10
2018-02-27T20:20:03.112Z,69.90
2018-02-27T20:22:36.629Z,69.80
2018-02-27T20:25:04.312Z,69.70
2018-02-27T20:27:32.561Z,70.20
2018-02-27T20:30:00.345Z,69.40
2018-02-27T20:32:27.975Z,69.80
2018-02-27T20:34:55.524Z,70.00
2018-02-27T20:37:23.877Z,70.30
2018-02-27T20:39:51.428Z,70.30
2018-02-27T20:42:18.997Z,70.70
2018-02-27T20:44:46.580Z,71.90
2018-02-27T20:47:25.355Z,72.00
2018-02-27T20:58:38.600Z,71.30
2018-02-27T21:01:06.962Z,72.50
2018-02-27T21:03:35.283Z,72.30
2018-02-27T21:06:03.691Z,72.90
2018-02-27T21:08:31.247Z,72.90
2018-02-27T21:10:58.803Z,74.00
2018-02-27T21:13:26.380Z,73.40
2018-02-27T21:15:53.927Z,73.50
2018-02-27T21:18:21.499Z,73.20
2018-02-27T21:20:49.153Z,73.10
2018-02-27T21:23:16.719Z,72.90
2018-02-27T21:25:44.268Z,73.20
2018-02-27T21:28:12.720Z,73.30
2018-02-27T21:30:40.291Z,72.80
2018-02-27T21:33:07.845Z,73.00
2018-02-27T21:35:37.491Z,73.80
2018-02-27T21:38:05.036Z,74.90
2018-02-27T21:40:32.616Z,74.40
2018-02-27T21:43:00.771Z,74.10
2018-02-27T21:45:28.327Z,73.80
2018-02-27T21:47:55.900Z,74.90
2018-02-27T21:50:23.499Z,75.20
2018-02-27T21:52:51.816Z,74.80
2018-02-27T21:55:19.363Z,74.70
2018-02-27T21:57:47.066Z,74.10
2018-02-27T22:00:15.682Z,73.90
2018-02-27T22:02:43.255Z,73.90
2018-02-27T22:05:11.273Z,74.50
2018-02-27T22:07:38.833Z,74.40
2018-02-27T22:10:06.703Z,74.50
2018-02-27T22:12:34.315Z,73.80
2018-02-27T22:15:01.868Z,73.30
2018-02-27T22:17:29.440Z,72.80
2018-02-27T22:19:57.010Z,73.30
2018-02-27T22:22:24.557Z,74.00
2018-02-27T22:24:52.100Z,74.30
2018-02-27T22:27:20.760Z,74.90
2018-02-27T22:29:48.575Z,74.80
2018-02-27T22:32:16.604Z,74.90
2018-02-27T22:34:44.184Z,75.40
2018-02-27T22:37:12.503Z,76.20
2018-02-27T22:39:40.819Z,76.20
2018-02-27T22:42:08.399Z,76.20
2018-02-27T22:44:36.719Z,76.60
2018-02-27T22:47:04.266Z,76.50
2018-02-27T22:49:32.270Z,76.90
2018-02-27T22:51:59.813Z,77.10
2018-02-27T22:54:27.357Z,77.10
2018-02-27T22:56:54.928Z,77.20
2018-02-27T22:59:22.483Z,77.60
2018-02-27T23:01:50.032Z,77.20
2018-02-27T23:04:17.625Z,77.80
2018-02-27T23:06:45.502Z,77.60
2018-02-27T23:09:14.589Z,77.70
2018-02-27T23:11:42.455Z,77.50
2018-02-27T23:14:10.008Z,77.30
2018-02-27T23:16:37.555Z,77.70
2018-02-27T23:19:05.148Z,77.80
2018-02-27T23:21:32.701Z,77.60
2018-02-27T23:24:01.388Z,77.80
2018-02-27T23:26:29.139Z,77.70
2018-02-27T23:28:56.769Z,77.70
2018-02-27T23:31:24.655Z,77.90
2018-02-27T23:33:55.407Z,78.30
2018-02-27T23:36:22.952Z,78.70
2018-02-27T23:38:50.516Z,78.00
2018-02-27T23:41:18.104Z,78.00
2018-02-27T23:43:45.653Z,78.10
2018-02-27T23:46:24.515Z,78.20
2018-02-27T23:53:23.438Z,79.20
2018-02-27T23:55:51.755Z,81.20
2018-02-27T23:58:19.302Z,81.00
